createdAt,value
2023-03-22T00:00:12.333Z,96.19
2023-03-22T00:01:12.346Z,96.29
2023-03-22T00:02:12.357Z,96.08
2023-03-22T00:03:12.296Z,95.88
2023-03-22T00:04:12.312Z,95.98
2023-03-22T00:05:12.281Z,95.98
2023-03-22T00:06:12.259Z,95.98
2023-03-22T00:07:12.269Z,96.08
2023-03-22T00:08:12.246Z,95.98
2023-03-22T00:09:12.230Z,95.88
2023-03-22T00:10:12.219Z,95.78
2023-03-22T00:11:12.225Z,95.98
2023-03-22T00:12:12.209Z,96.19
2023-03-22T00:13:12.198Z,96.29
2023-03-22T00:14:12.175Z,96.19
2023-03-22T00:15:12.163Z,96.39
2023-03-22T00:16:12.176Z,96.39
2023-03-22T00:17:12.157Z,95.88
2023-03-22T00:18:12.133Z,95.98
2023-03-22T00:19:12.115Z,95.88
2023-03-22T00:20:12.120Z,95.88
2023-03-22T00:21:12.103Z,95.88
2023-03-22T00:22:12.113Z,95.98
2023-03-22T00:23:12.081Z,95.98
2023-03-22T00:24:12.062Z,95.88
2023-03-22T00:25:12.045Z,95.98
2023-03-22T00:26:12.070Z,96.19
2023-03-22T00:27:12.086Z,96.08
2023-03-22T00:28:12.029Z,96.08
2023-03-22T00:29:12.014Z,96.29
2023-03-22T00:30:12.031Z,96.29
2023-03-22T00:31:12.052Z,96.29
2023-03-22T00:32:12.006Z,96.33
2023-03-22T00:33:11.986Z,96.23
2023-03-22T00:34:11.977Z,96.33
2023-03-22T00:35:12.095Z,96.08
2023-03-22T00:36:11.966Z,95.98
2023-03-22T00:37:11.918Z,96.08
2023-03-22T00:38:11.939Z,96.08
2023-03-22T00:39:11.907Z,95.98
2023-03-22T00:40:11.893Z,95.98
2023-03-22T00:41:11.899Z,96.13
2023-03-22T00:42:11.872Z,96.13
2023-03-22T00:43:11.863Z,96.54
2023-03-22T00:44:11.868Z,96.44
2023-03-22T00:45:11.840Z,96.54
2023-03-22T00:46:11.867Z,96.54
2023-03-22T00:47:11.810Z,96.54
2023-03-22T00:48:11.966Z,96.44
2023-03-22T00:49:11.792Z,96.33
2023-03-22T00:50:11.806Z,96.44
2023-03-22T00:51:11.814Z,96.44
2023-03-22T00:52:11.767Z,96.33
2023-03-22T00:53:11.758Z,96.44
2023-03-22T00:54:11.741Z,96.59
2023-03-22T00:55:11.750Z,96.39
2023-03-22T00:56:11.711Z,96.19
2023-03-22T00:57:11.737Z,96.08
2023-03-22T00:58:11.694Z,95.78
2023-03-22T00:59:11.681Z,95.78
2023-03-22T01:00:11.674Z,95.98
2023-03-22T01:01:11.697Z,95.78
2023-03-22T01:02:11.653Z,95.57
2023-03-22T01:03:11.674Z,95.43
2023-03-22T01:04:11.632Z,95.43
2023-03-22T01:05:11.640Z,95.43
2023-03-22T01:06:11.666Z,95.53
2023-03-22T01:07:11.597Z,95.22
2023-03-22T01:08:11.583Z,95.12
2023-03-22T01:09:11.580Z,95.12
2023-03-22T01:10:11.589Z,95.22
2023-03-22T01:11:11.583Z,95.32
2023-03-22T01:12:11.539Z,95.43
2023-03-22T01:13:11.555Z,95.43
2023-03-22T01:14:11.521Z,95.12
2023-03-22T01:15:11.501Z,95.32
2023-03-22T01:16:11.649Z,95.32
2023-03-22T01:17:11.481Z,95.22
2023-03-22T01:18:11.471Z,95.02
2023-03-22T01:19:11.458Z,94.81
2023-03-22T01:20:11.451Z,94.92
2023-03-22T01:21:11.457Z,94.77
2023-03-22T01:22:11.430Z,94.56
2023-03-22T01:23:11.411Z,94.36
2023-03-22T01:24:11.406Z,94.46
2023-03-22T01:25:11.395Z,94.56
2023-03-22T01:26:11.386Z,94.46
2023-03-22T01:27:11.401Z,94.46
2023-03-22T01:28:11.369Z,94.36
2023-03-22T01:29:11.349Z,94.46
2023-03-22T01:30:11.344Z,94.56
2023-03-22T01:31:11.363Z,94.46
2023-03-22T01:32:11.311Z,94.46
2023-03-22T01:33:11.325Z,94.67
2023-03-22T01:34:11.290Z,94.56
2023-03-22T01:35:11.289Z,94.36
2023-03-22T01:36:11.272Z,94.36
2023-03-22T01:37:11.260Z,94.46
2023-03-22T01:38:11.270Z,94.56
2023-03-22T01:39:11.243Z,94.67
2023-03-22T01:40:11.232Z,94.67
2023-03-22T01:41:11.215Z,94.56
2023-03-22T01:42:11.213Z,94.56
2023-03-22T01:43:11.225Z,94.67
2023-03-22T01:44:11.186Z,94.36
2023-03-22T01:45:11.198Z,94.46
2023-03-22T01:46:11.194Z,94.56
2023-03-22T01:47:11.157Z,94.67
2023-03-22T01:48:11.227Z,94.56
2023-03-22T01:49:11.214Z,94.36
2023-03-22T01:50:11.131Z,94.15
2023-03-22T01:51:11.118Z,94.15
2023-03-22T01:52:11.107Z,94.26
2023-03-22T01:53:11.117Z,94.26
2023-03-22T01:54:11.104Z,94.26
2023-03-22T01:55:11.071Z,94.15
2023-03-22T01:56:11.069Z,93.91
2023-03-22T01:57:11.048Z,93.91
2023-03-22T01:58:11.069Z,94.11
2023-03-22T01:59:11.027Z,94.01
2023-03-22T02:00:11.024Z,94.21
2023-03-22T02:01:11.047Z,94.11
2023-03-22T02:02:11.011Z,94.11
2023-03-22T02:03:10.989Z,94.11
2023-03-22T02:04:10.998Z,94.11
2023-03-22T02:05:10.958Z,94.21
2023-03-22T02:06:10.958Z,94.36
2023-03-22T02:07:10.941Z,94.36
2023-03-22T02:08:10.936Z,94.46
2023-03-22T02:09:10.923Z,94.56
2023-03-22T02:10:10.927Z,94.67
2023-03-22T02:11:10.900Z,94.56
2023-03-22T02:12:10.888Z,94.67
2023-03-22T02:13:10.876Z,94.56
2023-03-22T02:14:10.888Z,94.67
2023-03-22T02:15:10.872Z,94.77
2023-03-22T02:16:10.917Z,94.87
2023-03-22T02:17:10.830Z,95.02
2023-03-22T02:18:10.818Z,95.12
2023-03-22T02:19:10.802Z,95.22
2023-03-22T02:20:10.839Z,95.43
2023-03-22T02:21:10.811Z,95.63
2023-03-22T02:22:10.779Z,95.73
2023-03-22T02:23:10.771Z,95.88
2023-03-22T02:24:10.767Z,95.88
2023-03-22T02:25:10.764Z,95.98
2023-03-22T02:26:10.771Z,96.19
2023-03-22T02:27:10.719Z,96.29
2023-03-22T02:28:10.714Z,96.39
2023-03-22T02:29:10.705Z,96.49
2023-03-22T02:30:10.693Z,96.74
2023-03-22T02:31:10.734Z,96.84
2023-03-22T02:32:10.670Z,96.95
2023-03-22T02:33:10.659Z,97.05
2023-03-22T02:34:10.648Z,97.15
2023-03-22T02:35:10.632Z,97.36
2023-03-22T02:36:10.622Z,97.50
2023-03-22T02:37:10.631Z,97.61
2023-03-22T02:38:10.624Z,97.71
2023-03-22T02:39:10.592Z,97.81
2023-03-22T02:40:10.600Z,97.91
2023-03-22T02:41:10.566Z,98.22
2023-03-22T02:42:10.561Z,98.43
2023-03-22T02:43:10.561Z,98.43
2023-03-22T02:44:10.544Z,98.33
2023-03-22T02:45:10.521Z,98.33
2023-03-22T02:46:10.606Z,98.47
2023-03-22T02:47:10.503Z,98.58
2023-03-22T02:48:10.499Z,98.68
2023-03-22T02:49:10.479Z,98.68
2023-03-22T02:50:10.462Z,98.68
2023-03-22T02:51:10.460Z,98.68
2023-03-22T02:52:10.479Z,98.74
2023-03-22T02:53:10.432Z,98.63
2023-03-22T02:54:10.422Z,98.53
2023-03-22T02:55:10.409Z,98.43
2023-03-22T02:56:10.402Z,98.33
2023-03-22T02:57:10.389Z,98.22
2023-03-22T02:58:10.392Z,98.12
2023-03-22T02:59:10.374Z,98.22
2023-03-22T03:00:10.355Z,98.12
2023-03-22T03:01:10.455Z,98.02
2023-03-22T03:02:10.392Z,98.12
2023-03-22T03:03:10.320Z,98.02
2023-03-22T03:04:10.323Z,98.02
2023-03-22T03:05:10.320Z,98.02
2023-03-22T03:06:10.292Z,97.91
2023-03-22T03:07:10.274Z,97.91
2023-03-22T03:08:10.271Z,97.91
2023-03-22T03:09:10.274Z,97.91
2023-03-22T03:10:10.255Z,98.02
2023-03-22T03:11:10.241Z,97.91
2023-03-22T03:12:10.231Z,97.81
2023-03-22T03:13:10.222Z,97.71
2023-03-22T03:14:10.232Z,97.61
2023-03-22T03:15:10.196Z,97.46
2023-03-22T03:16:10.230Z,97.46
2023-03-22T03:17:10.162Z,97.56
2023-03-22T03:18:10.153Z,97.56
2023-03-22T03:19:10.164Z,97.66
2023-03-22T03:20:10.132Z,97.56
2023-03-22T03:21:10.122Z,97.36
2023-03-22T03:22:10.105Z,97.25
2023-03-22T03:23:10.094Z,97.25
2023-03-22T03:24:10.115Z,97.25
2023-03-22T03:25:10.075Z,97.25
2023-03-22T03:26:10.073Z,97.15
2023-03-22T03:27:10.060Z,96.95
2023-03-22T03:28:10.055Z,96.95
2023-03-22T03:29:10.034Z,96.95
2023-03-22T03:30:10.051Z,96.84
2023-03-22T03:31:10.021Z,96.80
2023-03-22T03:32:10.000Z,96.84
2023-03-22T03:33:10.001Z,96.91
2023-03-22T03:34:09.974Z,97.05
2023-03-22T03:35:09.994Z,96.95
2023-03-22T03:36:09.962Z,96.80
2023-03-22T03:37:09.948Z,96.95
2023-03-22T03:38:09.952Z,96.84
2023-03-22T03:39:09.936Z,96.95
2023-03-22T03:40:09.909Z,96.84
2023-03-22T03:41:09.925Z,96.95
2023-03-22T03:42:09.888Z,97.05
2023-03-22T03:43:09.885Z,96.95
2023-03-22T03:44:09.874Z,96.95
2023-03-22T03:45:09.855Z,96.84
2023-03-22T03:46:09.938Z,96.80
2023-03-22T03:47:09.841Z,96.80
2023-03-22T03:48:09.824Z,97.00
2023-03-22T03:49:09.809Z,97.00
2023-03-22T03:50:09.796Z,96.91
2023-03-22T03:51:09.808Z,96.91
2023-03-22T03:52:09.777Z,96.91
2023-03-22T03:53:09.769Z,96.80
2023-03-22T03:54:09.901Z,96.70
2023-03-22T03:55:09.770Z,96.59
2023-03-22T03:56:09.751Z,96.80
2023-03-22T03:57:09.733Z,96.59
2023-03-22T03:58:09.707Z,96.49
2023-03-22T03:59:09.722Z,96.49
2023-03-22T04:00:09.685Z,96.49
2023-03-22T04:01:09.690Z,96.59
2023-03-22T04:02:09.681Z,96.59
2023-03-22T04:03:09.649Z,96.59
2023-03-22T04:04:09.764Z,96.80
2023-03-22T04:05:30.762Z,96.91
2023-03-22T04:06:09.729Z,96.91
2023-03-22T04:07:09.612Z,97.00
2023-03-22T04:08:09.592Z,96.91
2023-03-22T04:09:09.658Z,97.00
2023-03-22T04:10:09.593Z,97.00
2023-03-22T04:11:09.564Z,96.91
2023-03-22T04:12:09.585Z,96.91
2023-03-22T04:13:09.556Z,96.80
2023-03-22T04:14:09.534Z,96.70
2023-03-22T04:15:09.546Z,96.70
2023-03-22T04:16:09.511Z,96.70
2023-03-22T04:17:09.502Z,96.66
2023-03-22T04:18:09.490Z,96.66
2023-03-22T04:19:09.515Z,96.70
2023-03-22T04:20:09.495Z,96.59
2023-03-22T04:21:09.473Z,96.70
2023-03-22T04:22:09.447Z,96.70
2023-03-22T04:23:09.453Z,96.80
2023-03-22T04:24:09.435Z,97.00
2023-03-22T04:25:09.406Z,97.00
2023-03-22T04:26:09.451Z,97.00
2023-03-22T04:27:09.387Z,97.11
2023-03-22T04:28:09.383Z,97.21
2023-03-22T04:29:09.419Z,97.31
2023-03-22T04:30:09.383Z,97.31
2023-03-22T04:31:09.432Z,97.31
2023-03-22T04:32:09.334Z,97.41
2023-03-22T04:33:09.392Z,97.31
2023-03-22T04:34:09.335Z,97.41
2023-03-22T04:35:09.296Z,97.41
2023-03-22T04:36:09.285Z,97.56
2023-03-22T04:37:09.295Z,97.52
2023-03-22T04:38:09.262Z,97.41
2023-03-22T04:39:09.252Z,97.41
2023-03-22T04:40:09.244Z,97.56
2023-03-22T04:41:09.226Z,97.56
2023-03-22T04:42:09.223Z,97.56
2023-03-22T04:43:09.221Z,97.66
2023-03-22T04:44:09.210Z,97.66
2023-03-22T04:45:09.186Z,97.77
2023-03-22T04:46:09.234Z,97.77
2023-03-22T04:47:09.166Z,97.97
2023-03-22T04:48:09.217Z,97.97
2023-03-22T04:49:09.165Z,98.07
2023-03-22T04:50:09.185Z,98.18
2023-03-22T04:51:09.120Z,98.28
2023-03-22T04:52:09.107Z,98.28
2023-03-22T04:53:09.095Z,98.28
2023-03-22T04:54:09.090Z,98.28
2023-03-22T04:55:09.095Z,98.33
2023-03-22T04:57:26.218Z,98.43
2023-03-22T04:58:26.207Z,98.43
2023-03-22T04:59:26.188Z,98.53
2023-03-22T05:00:26.206Z,98.43
2023-03-22T05:01:26.197Z,98.63
2023-03-22T05:02:26.184Z,98.63
2023-03-22T05:03:26.167Z,98.74
2023-03-22T05:04:26.138Z,98.63
2023-03-22T05:05:26.163Z,98.63
2023-03-22T05:06:26.117Z,98.53
2023-03-22T05:07:26.100Z,98.53
2023-03-22T05:08:26.088Z,98.63
2023-03-22T05:09:26.077Z,98.63
2023-03-22T05:10:26.067Z,98.63
2023-03-22T05:11:26.079Z,98.63
2023-03-22T05:12:26.040Z,98.53
2023-03-22T05:13:26.069Z,98.53
2023-03-22T05:14:26.092Z,98.53
2023-03-22T05:15:26.017Z,98.53
2023-03-22T05:16:26.037Z,98.53
2023-03-22T05:17:26.128Z,98.63
2023-03-22T05:18:25.981Z,98.74
2023-03-22T05:19:25.969Z,98.74
2023-03-22T05:20:25.958Z,98.83
2023-03-22T05:21:25.942Z,98.74
2023-03-22T05:22:25.932Z,98.83
2023-03-22T05:23:25.961Z,98.83
2023-03-22T05:24:25.913Z,98.94
2023-03-22T05:25:25.897Z,98.83
2023-03-22T05:26:25.894Z,98.74
2023-03-22T05:27:25.871Z,98.74
2023-03-22T05:28:25.872Z,98.83
2023-03-22T05:29:25.878Z,98.83
2023-03-22T05:30:25.841Z,98.74
2023-03-22T05:31:25.866Z,98.74
2023-03-22T05:32:25.819Z,98.63
2023-03-22T05:33:25.830Z,98.53
2023-03-22T05:34:25.822Z,98.43
2023-03-22T05:35:25.822Z,98.43
2023-03-22T05:36:25.782Z,98.43
2023-03-22T05:37:25.764Z,98.33
2023-03-22T05:38:25.773Z,98.07
2023-03-22T05:39:25.745Z,97.97
2023-03-22T05:40:25.755Z,97.97
2023-03-22T05:41:25.725Z,97.87
2023-03-22T05:42:25.712Z,97.87
2023-03-22T05:43:25.717Z,97.56
2023-03-22T05:44:25.695Z,97.56
2023-03-22T05:45:25.683Z,97.56
2023-03-22T05:46:25.811Z,97.46
2023-03-22T05:47:25.668Z,97.46
2023-03-22T05:48:25.649Z,97.25
2023-03-22T05:49:25.638Z,97.25
2023-03-22T05:50:25.652Z,97.21
2023-03-22T05:51:25.621Z,97.11
2023-03-22T05:52:25.599Z,97.00
2023-03-22T05:53:25.618Z,97.00
2023-03-22T05:54:25.569Z,97.00
2023-03-22T05:55:25.580Z,96.80
2023-03-22T05:56:25.576Z,96.59
2023-03-22T05:57:25.559Z,96.59
2023-03-22T05:58:25.537Z,96.59
2023-03-22T05:59:25.530Z,96.55
2023-03-22T06:00:25.526Z,96.45
2023-03-22T06:01:25.532Z,96.34
2023-03-22T06:02:25.491Z,96.34
2023-03-22T06:03:25.579Z,96.34
2023-03-22T06:04:25.474Z,96.25
2023-03-22T06:05:25.469Z,96.14
2023-03-22T06:06:25.474Z,96.04
2023-03-22T06:07:25.439Z,95.84
2023-03-22T06:08:26.616Z,95.94
2023-03-22T06:09:25.444Z,95.84
2023-03-22T06:10:25.404Z,95.63
2023-03-22T06:11:25.414Z,95.63
2023-03-22T06:12:25.384Z,95.73
2023-03-22T06:13:25.475Z,95.84
2023-03-22T06:14:25.362Z,95.63
2023-03-22T06:15:25.348Z,95.63
2023-03-22T06:16:25.362Z,95.63
2023-03-22T06:17:25.373Z,95.53
2023-03-22T06:18:25.314Z,95.43
2023-03-22T06:19:25.313Z,95.32
2023-03-22T06:20:25.294Z,95.28
2023-03-22T06:21:25.286Z,95.28
2023-03-22T06:22:25.265Z,95.28
2023-03-22T06:23:25.391Z,95.18
2023-03-22T06:24:25.246Z,95.07
2023-03-22T06:25:25.248Z,94.97
2023-03-22T06:26:25.227Z,94.97
2023-03-22T06:27:25.244Z,94.87
2023-03-22T06:28:25.226Z,94.67
2023-03-22T06:29:25.196Z,94.77
2023-03-22T06:30:25.240Z,94.77
2023-03-22T06:31:25.171Z,94.77
2023-03-22T06:32:25.155Z,94.77
2023-03-22T06:33:25.186Z,94.67
2023-03-22T06:34:25.154Z,94.46
2023-03-22T06:35:25.149Z,94.21
2023-03-22T06:36:25.108Z,94.01
2023-03-22T06:37:25.100Z,93.91
2023-03-22T06:38:25.108Z,93.80
2023-03-22T06:39:25.079Z,93.70
2023-03-22T06:40:25.059Z,93.80
2023-03-22T06:41:25.058Z,93.40
2023-03-22T06:42:25.052Z,93.25
2023-03-22T06:43:25.066Z,93.15
2023-03-22T06:44:25.018Z,93.15
2023-03-22T06:45:25.007Z,93.05
2023-03-22T06:46:25.028Z,92.94
2023-03-22T06:47:24.986Z,93.05
2023-03-22T06:48:25.052Z,92.84
2023-03-22T06:49:24.988Z,92.54
2023-03-22T06:50:24.957Z,92.43
2023-03-22T06:51:24.945Z,92.33
2023-03-22T06:52:24.955Z,92.19
2023-03-22T06:53:24.926Z,92.08
2023-03-22T06:54:24.908Z,91.78
2023-03-22T06:55:24.900Z,91.78
2023-03-22T06:56:24.876Z,91.67
2023-03-22T06:57:24.882Z,91.57
2023-03-22T06:58:24.882Z,91.67
2023-03-22T06:59:24.868Z,91.47
2023-03-22T07:00:24.848Z,91.47
2023-03-22T07:01:24.923Z,91.27
2023-03-22T07:02:24.817Z,91.27
2023-03-22T07:03:24.848Z,90.96
2023-03-22T07:04:24.834Z,91.16
2023-03-22T07:05:24.798Z,91.02
2023-03-22T07:06:24.776Z,91.33
2023-03-22T07:07:24.774Z,91.02
2023-03-22T07:08:24.759Z,90.92
2023-03-22T07:09:24.779Z,90.81
2023-03-22T07:10:24.729Z,90.92
2023-03-22T07:11:24.719Z,90.92
2023-03-22T07:12:24.721Z,90.81
2023-03-22T07:13:24.717Z,90.71
2023-03-22T07:14:24.688Z,90.71
2023-03-22T07:15:24.866Z,90.71
2023-03-22T07:16:24.753Z,90.41
2023-03-22T07:17:24.665Z,90.10
2023-03-22T07:18:24.680Z,90.10
2023-03-22T07:19:24.637Z,90.20
2023-03-22T07:20:24.639Z,90.31
2023-03-22T07:21:24.612Z,90.31
2023-03-22T07:22:24.600Z,90.20
2023-03-22T07:23:24.620Z,89.90
2023-03-22T07:24:24.605Z,89.90
2023-03-22T07:25:24.570Z,90.10
2023-03-22T07:26:24.557Z,90.20
2023-03-22T07:27:24.547Z,90.10
2023-03-22T07:28:24.547Z,89.90
2023-03-22T07:29:24.522Z,89.90
2023-03-22T07:30:24.531Z,89.79
2023-03-22T07:31:24.521Z,90.57
2023-03-22T07:32:24.572Z,90.57
2023-03-22T07:33:24.545Z,89.86
2023-03-22T07:34:24.477Z,89.65
2023-03-22T07:35:26.766Z,89.45
2023-03-22T07:36:24.607Z,89.30
2023-03-22T07:37:24.433Z,89.00
2023-03-22T07:38:24.496Z,89.00
2023-03-22T07:39:24.745Z,88.69
2023-03-22T07:40:24.428Z,88.28
2023-03-22T07:41:24.403Z,88.08
2023-03-22T07:42:24.378Z,88.04
2023-03-22T07:43:24.388Z,87.84
2023-03-22T07:44:24.399Z,87.73
2023-03-22T07:45:24.424Z,87.32
2023-03-22T07:46:24.371Z,87.38
2023-03-22T07:47:39.448Z,87.38
2023-03-22T07:48:25.378Z,87.18
2023-03-22T07:49:24.343Z,86.88
2023-03-22T07:50:24.320Z,86.98
2023-03-22T07:51:24.300Z,87.08
2023-03-22T07:52:24.280Z,87.08
2023-03-22T07:53:24.292Z,86.77
2023-03-22T07:54:33.321Z,86.57
2023-03-22T07:55:25.276Z,86.98
2023-03-22T07:56:24.235Z,86.77
2023-03-22T07:57:24.224Z,86.68
2023-03-22T07:58:24.214Z,86.98
2023-03-22T07:59:24.211Z,86.88
2023-03-22T08:00:24.200Z,86.47
2023-03-22T08:01:24.204Z,86.02
2023-03-22T08:02:24.222Z,86.33
2023-03-22T08:03:24.198Z,86.02
2023-03-22T08:04:24.146Z,85.72
2023-03-22T08:05:24.144Z,85.68
2023-03-22T08:06:24.154Z,84.86
2023-03-22T08:07:24.117Z,84.82
2023-03-22T08:08:24.104Z,84.31
2023-03-22T08:09:24.178Z,83.70
2023-03-22T08:10:24.083Z,83.81
2023-03-22T08:11:24.117Z,84.01
2023-03-22T08:12:24.081Z,84.11
2023-03-22T08:13:24.064Z,83.34
2023-03-22T08:14:34.041Z,83.23
2023-03-22T08:15:25.026Z,83.64
2023-03-22T08:16:24.064Z,83.64
2023-03-22T08:17:24.005Z,83.84
2023-03-22T08:18:23.987Z,83.23
2023-03-22T08:19:23.995Z,83.23
2023-03-22T08:20:23.968Z,83.40
2023-03-22T08:21:23.960Z,83.60
2023-03-22T08:22:23.967Z,82.89
2023-03-22T08:23:38.503Z,82.99
2023-03-22T08:24:24.939Z,82.65
2023-03-22T08:25:23.914Z,82.54
2023-03-22T08:26:24.060Z,82.04
2023-03-22T08:27:23.907Z,82.34
2023-03-22T08:28:23.882Z,81.12
2023-03-22T08:29:23.881Z,81.12
2023-03-22T08:30:23.905Z,81.43
2023-03-22T08:31:23.964Z,81.73
2023-03-22T08:32:23.874Z,81.33
2023-03-22T08:33:23.824Z,80.82
2023-03-22T08:34:23.807Z,80.88
2023-03-22T08:35:23.825Z,80.72
2023-03-22T08:36:23.805Z,80.92
2023-03-22T08:37:23.777Z,80.92
2023-03-22T08:38:23.788Z,80.51
2023-03-22T08:39:24.709Z,80.00
2023-03-22T08:40:23.850Z,80.31
2023-03-22T08:41:23.749Z,80.41
2023-03-22T08:42:23.733Z,79.97
2023-03-22T08:43:23.750Z,79.36
2023-03-22T08:44:23.754Z,79.25
2023-03-22T08:45:23.709Z,79.46
2023-03-22T08:46:23.721Z,78.95
2023-03-22T08:47:23.713Z,78.68
2023-03-22T08:48:23.855Z,79.16
2023-03-22T08:49:23.654Z,79.05
2023-03-22T08:50:23.626Z,78.95
2023-03-22T08:51:23.626Z,79.05
2023-03-22T08:52:23.610Z,79.25
2023-03-22T08:53:23.618Z,79.66
2023-03-22T08:54:23.607Z,79.56
2023-03-22T08:55:23.580Z,78.55
2023-03-22T08:56:23.561Z,78.75
2023-03-22T08:57:23.558Z,78.24
2023-03-22T08:58:23.538Z,77.43
2023-03-22T08:59:23.556Z,77.33
2023-03-22T09:00:23.522Z,78.04
2023-03-22T09:01:23.798Z,77.19
2023-03-22T09:02:23.556Z,77.39
2023-03-22T09:03:23.503Z,77.36
2023-03-22T09:04:23.488Z,76.37
2023-03-22T09:05:23.609Z,76.48
2023-03-22T09:06:23.454Z,76.31
2023-03-22T09:07:23.448Z,76.61
2023-03-22T09:08:23.431Z,77.02
2023-03-22T09:09:23.452Z,76.61
2023-03-22T09:10:23.404Z,76.72
2023-03-22T09:11:23.462Z,76.72
2023-03-22T09:12:23.402Z,76.21
2023-03-22T09:13:23.668Z,76.98
2023-03-22T09:14:23.369Z,76.88
2023-03-22T09:15:23.362Z,76.68
2023-03-22T09:16:23.405Z,75.97
2023-03-22T09:17:23.329Z,76.03
2023-03-22T09:18:23.354Z,75.46
2023-03-22T09:19:23.303Z,75.43
2023-03-22T09:20:23.312Z,75.22
2023-03-22T09:21:23.326Z,74.82
2023-03-22T09:22:23.291Z,75.12
2023-03-22T09:23:23.382Z,75.02
2023-03-22T09:24:23.249Z,75.56
2023-03-22T09:25:23.236Z,75.97
2023-03-22T09:26:23.259Z,75.87
2023-03-22T09:27:23.234Z,76.37
2023-03-22T09:28:23.224Z,76.88
2023-03-22T09:29:23.192Z,76.58
2023-03-22T09:30:23.202Z,76.48
2023-03-22T09:31:23.238Z,76.31
2023-03-22T09:32:23.228Z,76.10
2023-03-22T09:33:23.172Z,76.10
2023-03-22T09:34:23.134Z,76.10
2023-03-22T09:35:23.192Z,76.37
2023-03-22T09:36:23.114Z,76.28
2023-03-22T09:37:23.100Z,76.17
2023-03-22T09:38:23.113Z,76.17
2023-03-22T09:39:23.103Z,76.03
2023-03-22T09:40:23.164Z,75.63
2023-03-22T09:41:23.061Z,75.16
2023-03-22T09:42:23.087Z,75.26
2023-03-22T09:43:23.034Z,75.32
2023-03-22T09:44:23.052Z,74.82
2023-03-22T09:45:23.030Z,75.43
2023-03-22T09:46:23.019Z,75.22
2023-03-22T09:47:24.462Z,74.92
2023-03-22T09:48:23.163Z,75.02
2023-03-22T09:49:22.994Z,74.17
2023-03-22T09:50:22.978Z,74.51
2023-03-22T09:51:22.946Z,74.21
2023-03-22T09:52:23.042Z,73.70
2023-03-22T09:53:22.930Z,73.70
2023-03-22T09:54:22.947Z,73.70
2023-03-22T09:55:22.923Z,73.90
2023-03-22T09:56:22.886Z,73.50
2023-03-22T09:57:22.885Z,71.97
2023-03-22T09:58:22.904Z,72.17
2023-03-22T09:59:22.885Z,72.04
2023-03-22T10:00:23.048Z,72.14
2023-03-22T10:01:22.995Z,72.14
2023-03-22T10:02:22.862Z,71.73
2023-03-22T10:03:22.837Z,72.45
2023-03-22T10:04:22.868Z,72.08
2023-03-22T10:05:22.812Z,72.04
2023-03-22T10:06:22.780Z,72.14
2023-03-22T10:07:22.783Z,72.04
2023-03-22T10:08:22.760Z,72.45
2023-03-22T10:09:22.829Z,72.14
2023-03-22T10:10:22.787Z,72.21
2023-03-22T10:11:22.726Z,71.91
2023-03-22T10:12:22.729Z,70.79
2023-03-22T10:13:22.711Z,70.76
2023-03-22T10:14:22.687Z,69.95
2023-03-22T10:15:22.709Z,70.39
2023-03-22T10:16:22.674Z,70.59
2023-03-22T10:17:22.768Z,70.05
2023-03-22T10:18:22.640Z,69.20
2023-03-22T10:19:22.636Z,68.70
2023-03-22T10:20:22.648Z,68.70
2023-03-22T10:21:22.617Z,68.52
2023-03-22T10:22:22.597Z,68.52
2023-03-22T10:23:22.589Z,69.07
2023-03-22T10:24:22.579Z,68.96
2023-03-22T10:25:22.629Z,68.70
2023-03-22T10:26:22.659Z,69.17
2023-03-22T10:27:22.541Z,68.96
2023-03-22T10:28:22.532Z,69.20
2023-03-22T10:29:22.518Z,69.91
2023-03-22T10:30:22.512Z,69.88
2023-03-22T10:31:22.592Z,69.37
2023-03-22T10:32:22.494Z,69.57
2023-03-22T10:33:22.484Z,69.20
2023-03-22T10:34:22.469Z,70.21
2023-03-22T10:35:22.480Z,69.91
2023-03-22T10:36:22.478Z,70.72
2023-03-22T10:37:22.439Z,70.52
2023-03-22T10:38:22.437Z,70.65
2023-03-22T10:39:22.402Z,70.65
2023-03-22T10:40:22.400Z,70.86
2023-03-22T10:41:22.411Z,70.76
2023-03-22T10:42:22.407Z,70.86
2023-03-22T10:43:22.381Z,70.65
2023-03-22T10:44:22.362Z,71.16
2023-03-22T10:45:22.336Z,71.16
2023-03-22T10:46:22.357Z,71.13
2023-03-22T10:47:22.349Z,70.62
2023-03-22T10:48:22.352Z,70.32
2023-03-22T10:49:22.295Z,70.28
2023-03-22T10:50:22.294Z,69.78
2023-03-22T10:51:22.276Z,69.31
2023-03-22T10:52:22.294Z,68.46
2023-03-22T10:53:22.256Z,68.23
2023-03-22T10:54:22.527Z,67.59
2023-03-22T10:55:22.232Z,67.29
2023-03-22T10:56:22.237Z,66.85
2023-03-22T10:57:22.214Z,66.61
2023-03-22T10:58:22.206Z,66.38
2023-03-22T10:59:22.212Z,64.84
2023-03-22T11:00:22.245Z,64.73
2023-03-22T11:01:22.257Z,64.43
2023-03-22T11:02:22.446Z,64.94
2023-03-22T11:03:22.151Z,64.76
2023-03-22T11:04:22.143Z,65.47
2023-03-22T11:05:22.142Z,64.87
2023-03-22T11:06:22.113Z,64.73
2023-03-22T11:07:22.124Z,63.29
2023-03-22T11:08:22.085Z,62.83
2023-03-22T11:09:22.082Z,62.52
2023-03-22T11:10:22.182Z,62.18
2023-03-22T11:11:22.081Z,63.02
2023-03-22T11:12:22.044Z,63.93
2023-03-22T11:13:22.065Z,63.22
2023-03-22T11:14:22.024Z,63.82
2023-03-22T11:15:22.036Z,64.29
2023-03-22T11:16:22.067Z,65.00
2023-03-22T11:17:21.986Z,65.47
2023-03-22T11:18:22.009Z,65.97
2023-03-22T11:19:21.986Z,66.47
2023-03-22T11:20:22.076Z,65.53
2023-03-22T11:21:21.944Z,65.87
2023-03-22T11:22:21.941Z,66.38
2023-03-22T11:23:21.924Z,66.44
2023-03-22T11:24:22.065Z,66.61
2023-03-22T11:25:21.900Z,65.73
2023-03-22T11:26:21.916Z,66.67
2023-03-22T11:27:22.003Z,66.88
2023-03-22T11:28:21.918Z,66.71
2023-03-22T11:29:21.890Z,66.91
2023-03-22T11:30:29.674Z,67.55
2023-03-22T11:31:21.886Z,67.96
2023-03-22T11:32:21.835Z,67.96
2023-03-22T11:33:21.810Z,68.06
2023-03-22T11:34:21.830Z,68.19
2023-03-22T11:35:21.904Z,68.70
2023-03-22T11:36:21.773Z,68.70
2023-03-22T11:37:21.772Z,68.80
2023-03-22T11:38:21.762Z,68.90
2023-03-22T11:39:21.737Z,69.51
2023-03-22T11:40:21.775Z,69.51
2023-03-22T11:41:21.724Z,69.27
2023-03-22T11:42:21.738Z,68.66
2023-03-22T11:43:21.743Z,68.77
2023-03-22T11:44:21.690Z,68.77
2023-03-22T11:45:21.726Z,69.27
2023-03-22T11:46:21.728Z,68.87
2023-03-22T11:47:21.649Z,67.99
2023-03-22T11:48:21.730Z,69.07
2023-03-22T11:49:21.630Z,68.66
2023-03-22T11:50:21.641Z,68.90
2023-03-22T11:51:21.612Z,69.00
2023-03-22T11:52:21.631Z,68.90
2023-03-22T11:53:21.592Z,69.03
2023-03-22T11:54:21.590Z,69.13
2023-03-22T11:55:21.589Z,69.44
2023-03-22T11:56:21.569Z,69.44
2023-03-22T11:57:21.565Z,69.13
2023-03-22T11:58:23.047Z,69.74
2023-03-22T11:59:21.523Z,69.74
2023-03-22T12:00:21.577Z,69.54
2023-03-22T12:01:21.503Z,69.57
2023-03-22T12:02:21.553Z,69.78
2023-03-22T12:03:21.614Z,70.39
2023-03-22T12:04:21.485Z,71.47
2023-03-22T12:05:21.588Z,70.25
2023-03-22T12:06:21.500Z,70.56
2023-03-22T12:07:21.432Z,71.37
2023-03-22T12:08:21.428Z,71.26
2023-03-22T12:09:21.414Z,70.18
2023-03-22T12:10:21.432Z,71.00
2023-03-22T12:11:21.391Z,71.53
2023-03-22T12:12:21.382Z,72.14
2023-03-22T12:13:21.371Z,71.23
2023-03-22T12:14:21.364Z,71.73
2023-03-22T12:15:21.373Z,72.14
2023-03-22T12:16:23.553Z,72.08
2023-03-22T12:17:21.324Z,72.69
2023-03-22T12:18:21.361Z,73.09
2023-03-22T12:19:21.293Z,73.19
2023-03-22T12:20:21.297Z,74.21
2023-03-22T12:21:21.303Z,74.51
2023-03-22T12:22:21.281Z,75.93
2023-03-22T12:23:21.256Z,74.85
2023-03-22T12:24:21.248Z,76.37
2023-03-22T12:25:21.233Z,78.14
2023-03-22T12:26:21.239Z,77.83
2023-03-22T12:27:21.214Z,77.43
2023-03-22T12:28:21.197Z,79.25
2023-03-22T12:29:21.186Z,79.16
2023-03-22T12:30:21.166Z,78.89
2023-03-22T12:31:21.237Z,79.09
2023-03-22T12:32:21.157Z,79.90
2023-03-22T12:33:21.184Z,81.63
2023-03-22T12:34:21.135Z,81.26
2023-03-22T12:35:21.130Z,82.28
2023-03-22T12:36:21.121Z,81.98
2023-03-22T12:37:21.118Z,81.06
2023-03-22T12:38:21.094Z,83.40
2023-03-22T12:39:21.079Z,81.46
2023-03-22T12:40:21.068Z,81.46
2023-03-22T12:41:21.058Z,83.03
2023-03-22T12:42:21.053Z,83.84
2023-03-22T12:43:21.056Z,82.52
2023-03-22T12:44:21.024Z,82.12
2023-03-22T12:45:21.013Z,82.82
2023-03-22T12:46:21.113Z,83.95
2023-03-22T12:47:20.989Z,84.86
2023-03-22T12:48:21.055Z,85.00
2023-03-22T12:49:20.961Z,84.90
2023-03-22T12:50:20.970Z,85.31
2023-03-22T12:51:20.942Z,83.58
2023-03-22T12:52:20.976Z,83.98
2023-03-22T12:53:20.923Z,83.58